Airfield :
LOGIN :

Register | Disclaimer

   EN    FR    IT 

 










Legend :    VFR   Marginal VFR   IFR   Intensive IFR   Very Intensive IFR
Visi :
Ceiling :
>= 8 km
>= 3000ft
5 to 8 km
1000 to 3000 ft
1500m to 5 km
500 to 1000 ft
800 to 1500m
200 to 500 ft
< 800m
< 200 ft
Symbols :   Thunderstorms  Fog  Heavy snow  Heavy precipitations  Wind > 20 kt
SIGMETs :     Misc.  Thunderstorms  Icing  Turbulence  Mountain Waves  Volcanic Ashes







- Airport Elevation : 19 ft
- IATA code : LCY
- Download approach charts


EGLC - London City

CURRENT METAR :
  • 251220Z AUTO 22007KT 170V270 9999 FEW048 17/05 Q1038

EXPIRED METARs :
  • 251150Z AUTO VRB07KT 9999 SCT045 17/05 Q1038
  • 251120Z AUTO 19006KT 110V260 9999 FEW044 16/05 Q1039
  • 251050Z AUTO VRB07KT 9999 NCD 16/05 Q1039
  • 251020Z AUTO 12005KT 060V170 9999 NCD 15/05 Q1039

TAF TAF EGLC
Valid from the 25 at 12:00 until the 25 at 21:00 UTC


251058Z 2512/2521 16006KT 9999 FEW045
ATIS : +44 20 7646 0224
No reported NOTAMs for that airfield.



MET'MAP, your aeronautical weather chart ! - Copyright ORBIFLY December 2007 - Disclaimer

ORBIFLY MET'MAP TEAM :

Programming & Development : Alexandra Zaïnal
Concept & Development : Baudouin d'Aumeries
Co-Development & Prog : Marc-Olivier Méhu
Technical & hardware support : Manuel Goepfert

Contact : metmap@orbifly.com




SOURCES & CREDITS :

   NOAA